sensor_id;sensor_type;location;lat;lon;timestamp;temperature;humidity
21403;DHT22;10862;51.886;17.078;2022-07-29T00:01:55;15.30;99.90
21403;DHT22;10862;51.886;17.078;2022-07-29T00:04:20;15.30;99.90
21403;DHT22;10862;51.886;17.078;2022-07-29T00:06:46;15.40;99.90
21403;DHT22;10862;51.886;17.078;2022-07-29T00:09:11;15.50;99.90
21403;DHT22;10862;51.886;17.078;2022-07-29T00:11:37;15.30;99.90
21403;DHT22;10862;51.886;17.078;2022-07-29T00:14:02;15.20;99.90
21403;DHT22;10862;51.886;17.078;2022-07-29T00:16:28;15.10;99.90
21403;DHT22;10862;51.886;17.078;2022-07-29T00:18:53;15.10;99.90
21403;DHT22;10862;51.886;17.078;2022-07-29T00:21:19;15.10;99.90
21403;DHT22;10862;51.886;17.078;2022-07-29T00:23:44;15.10;99.90
21403;DHT22;10862;51.886;17.078;2022-07-29T00:26:10;15.00;99.90
21403;DHT22;10862;51.886;17.078;2022-07-29T00:28:35;15.00;99.90
21403;DHT22;10862;51.886;17.078;2022-07-29T00:31:01;15.00;99.90
21403;DHT22;10862;51.886;17.078;2022-07-29T00:33:27;15.00;99.90
21403;DHT22;10862;51.886;17.078;2022-07-29T00:35:53;15.10;99.90
21403;DHT22;10862;51.886;17.078;2022-07-29T00:38:19;15.10;99.90
21403;DHT22;10862;51.886;17.078;2022-07-29T00:40:45;15.10;99.90
21403;DHT22;10862;51.886;17.078;2022-07-29T00:43:11;15.10;99.90
21403;DHT22;10862;51.886;17.078;2022-07-29T00:45:37;15.10;99.90
21403;DHT22;10862;51.886;17.078;2022-07-29T00:48:03;15.10;99.90
21403;DHT22;10862;51.886;17.078;2022-07-29T00:50:30;15.00;99.90
21403;DHT22;10862;51.886;17.078;2022-07-29T00:52:56;14.90;99.90
21403;DHT22;10862;51.886;17.078;2022-07-29T00:55:21;14.90;99.90
21403;DHT22;10862;51.886;17.078;2022-07-29T00:57:47;14.90;99.90
21403;DHT22;10862;51.886;17.078;2022-07-29T01:00:15;14.90;99.90
21403;DHT22;10862;51.886;17.078;2022-07-29T01:02:41;14.90;99.90
21403;DHT22;10862;51.886;17.078;2022-07-29T01:05:06;15.00;99.90
21403;DHT22;10862;51.886;17.078;2022-07-29T01:07:35;15.00;99.90
21403;DHT22;10862;51.886;17.078;2022-07-29T01:10:05;15.00;99.90
21403;DHT22;10862;51.886;17.078;2022-07-29T01:12:31;15.00;99.90
21403;DHT22;10862;51.886;17.078;2022-07-29T01:14:58;15.00;99.90
21403;DHT22;10862;51.886;17.078;2022-07-29T01:25:17;14.90;99.90
21403;DHT22;10862;51.886;17.078;2022-07-29T01:30:10;14.90;99.90
21403;DHT22;10862;51.886;17.078;2022-07-29T01:32:37;14.90;99.90
21403;DHT22;10862;51.886;17.078;2022-07-29T01:35:07;14.90;99.90
21403;DHT22;10862;51.886;17.078;2022-07-29T01:40:27;14.70;99.90
21403;DHT22;10862;51.886;17.078;2022-07-29T01:42:57;14.70;99.90
21403;DHT22;10862;51.886;17.078;2022-07-29T01:45:26;14.70;99.90
21403;DHT22;10862;51.886;17.078;2022-07-29T01:47:57;14.70;99.90
21403;DHT22;10862;51.886;17.078;2022-07-29T01:50:26;14.70;99.90
21403;DHT22;10862;51.886;17.078;2022-07-29T01:52:56;14.80;99.90
21403;DHT22;10862;51.886;17.078;2022-07-29T01:55:25;14.80;99.90
21403;DHT22;10862;51.886;17.078;2022-07-29T01:57:52;14.90;99.90
21403;DHT22;10862;51.886;17.078;2022-07-29T02:00:18;14.90;99.90
21403;DHT22;10862;51.886;17.078;2022-07-29T02:02:45;14.90;99.90
21403;DHT22;10862;51.886;17.078;2022-07-29T02:05:12;14.90;99.90
21403;DHT22;10862;51.886;17.078;2022-07-29T02:07:40;14.70;99.90
21403;DHT22;10862;51.886;17.078;2022-07-29T02:10:06;14.70;99.90
21403;DHT22;10862;51.886;17.078;2022-07-29T02:12:32;14.70;99.90
21403;DHT22;10862;51.886;17.078;2022-07-29T02:14:59;14.60;99.90
21403;DHT22;10862;51.886;17.078;2022-07-29T02:17:31;14.50;99.90
21403;DHT22;10862;51.886;17.078;2022-07-29T02:19:59;14.60;99.90
21403;DHT22;10862;51.886;17.078;2022-07-29T02:22:25;14.50;99.90
21403;DHT22;10862;51.886;17.078;2022-07-29T02:24:51;14.50;99.90
21403;DHT22;10862;51.886;17.078;2022-07-29T02:27:18;14.40;99.90
21403;DHT22;10862;51.886;17.078;2022-07-29T02:29:44;14.30;99.90
21403;DHT22;10862;51.886;17.078;2022-07-29T02:32:10;14.30;99.90
21403;DHT22;10862;51.886;17.078;2022-07-29T02:34:37;14.40;99.90
21403;DHT22;10862;51.886;17.078;2022-07-29T02:37:03;14.40;99.90
21403;DHT22;10862;51.886;17.078;2022-07-29T02:39:29;14.40;99.90
21403;DHT22;10862;51.886;17.078;2022-07-29T02:41:57;14.40;99.90
21403;DHT22;10862;51.886;17.078;2022-07-29T02:44:24;14.40;99.90
21403;DHT22;10862;51.886;17.078;2022-07-29T02:49:36;14.40;99.90
21403;DHT22;10862;51.886;17.078;2022-07-29T02:52:03;14.40;99.90
21403;DHT22;10862;51.886;17.078;2022-07-29T02:54:50;14.40;99.90
21403;DHT22;10862;51.886;17.078;2022-07-29T02:59:58;14.40;99.90
21403;DHT22;10862;51.886;17.078;2022-07-29T03:02:25;14.40;99.90
21403;DHT22;10862;51.886;17.078;2022-07-29T03:04:51;14.40;99.90
21403;DHT22;10862;51.886;17.078;2022-07-29T03:07:18;14.40;99.90
21403;DHT22;10862;51.886;17.078;2022-07-29T03:09:44;14.40;99.90
21403;DHT22;10862;51.886;17.078;2022-07-29T03:12:10;14.50;99.90
21403;DHT22;10862;51.886;17.078;2022-07-29T03:14:36;14.40;99.90
21403;DHT22;10862;51.886;17.078;2022-07-29T03:17:02;14.40;99.90
21403;DHT22;10862;51.886;17.078;2022-07-29T03:19:28;14.40;99.90
21403;DHT22;10862;51.886;17.078;2022-07-29T03:21:55;14.40;99.90
21403;DHT22;10862;51.886;17.078;2022-07-29T03:24:25;14.40;99.90
21403;DHT22;10862;51.886;17.078;2022-07-29T03:26:50;14.40;99.90
21403;DHT22;10862;51.886;17.078;2022-07-29T03:29:16;14.40;99.90
21403;DHT22;10862;51.886;17.078;2022-07-29T03:31:41;14.40;99.90
21403;DHT22;10862;51.886;17.078;2022-07-29T03:34:07;14.20;99.90
21403;DHT22;10862;51.886;17.078;2022-07-29T03:36:32;14.30;99.90
21403;DHT22;10862;51.886;17.078;2022-07-29T03:38:58;14.30;99.90
21403;DHT22;10862;51.886;17.078;2022-07-29T03:41:24;14.30;99.90
21403;DHT22;10862;51.886;17.078;2022-07-29T03:43:50;14.30;99.90
21403;DHT22;10862;51.886;17.078;2022-07-29T03:46:16;14.30;99.90
21403;DHT22;10862;51.886;17.078;2022-07-29T03:48:45;14.20;99.90
21403;DHT22;10862;51.886;17.078;2022-07-29T03:51:12;14.20;99.90
21403;DHT22;10862;51.886;17.078;2022-07-29T03:53:37;14.10;99.90
21403;DHT22;10862;51.886;17.078;2022-07-29T03:56:03;14.20;99.90
21403;DHT22;10862;51.886;17.078;2022-07-29T03:58:30;14.20;99.90
21403;DHT22;10862;51.886;17.078;2022-07-29T04:00:55;14.20;99.90
21403;DHT22;10862;51.886;17.078;2022-07-29T04:03:21;14.20;99.90
21403;DHT22;10862;51.886;17.078;2022-07-29T04:05:57;14.30;99.90
21403;DHT22;10862;51.886;17.078;2022-07-29T04:08:23;14.30;99.90
21403;DHT22;10862;51.886;17.078;2022-07-29T04:10:48;14.40;99.90
21403;DHT22;10862;51.886;17.078;2022-07-29T04:13:15;14.40;99.90
21403;DHT22;10862;51.886;17.078;2022-07-29T04:15:40;14.50;99.90
21403;DHT22;10862;51.886;17.078;2022-07-29T04:18:06;14.50;99.90
21403;DHT22;10862;51.886;17.078;2022-07-29T04:20:31;14.50;99.90
21403;DHT22;10862;51.886;17.078;2022-07-29T04:22:57;14.60;99.90
21403;DHT22;10862;51.886;17.078;2022-07-29T04:25:22;14.60;99.90
21403;DHT22;10862;51.886;17.078;2022-07-29T04:27:48;14.60;99.90
21403;DHT22;10862;51.886;17.078;2022-07-29T04:30:26;14.60;99.90
21403;DHT22;10862;51.886;17.078;2022-07-29T04:32:51;14.80;99.90
21403;DHT22;10862;51.886;17.078;2022-07-29T04:35:17;14.80;99.90
21403;DHT22;10862;51.886;17.078;2022-07-29T04:37:43;14.90;99.90
21403;DHT22;10862;51.886;17.078;2022-07-29T04:40:09;14.90;99.90
21403;DHT22;10862;51.886;17.078;2022-07-29T04:42:34;15.00;99.90
21403;DHT22;10862;51.886;17.078;2022-07-29T04:45:00;15.10;99.90
21403;DHT22;10862;51.886;17.078;2022-07-29T04:47:25;15.30;99.90
21403;DHT22;10862;51.886;17.078;2022-07-29T04:49:51;15.40;99.90
21403;DHT22;10862;51.886;17.078;2022-07-29T04:52:16;15.50;99.90
21403;DHT22;10862;51.886;17.078;2022-07-29T04:54:42;15.50;99.90
21403;DHT22;10862;51.886;17.078;2022-07-29T04:57:07;15.50;99.90
21403;DHT22;10862;51.886;17.078;2022-07-29T04:59:33;15.60;99.90
21403;DHT22;10862;51.886;17.078;2022-07-29T05:01:58;15.80;99.90
21403;DHT22;10862;51.886;17.078;2022-07-29T05:04:23;16.00;99.90
21403;DHT22;10862;51.886;17.078;2022-07-29T05:06:49;16.10;99.90
21403;DHT22;10862;51.886;17.078;2022-07-29T05:09:15;16.20;99.90
21403;DHT22;10862;51.886;17.078;2022-07-29T05:11:40;16.30;99.90
21403;DHT22;10862;51.886;17.078;2022-07-29T05:14:06;16.50;99.90
21403;DHT22;10862;51.886;17.078;2022-07-29T05:16:31;16.70;99.90
21403;DHT22;10862;51.886;17.078;2022-07-29T05:18:57;16.70;99.90
21403;DHT22;10862;51.886;17.078;2022-07-29T05:21:22;17.00;99.90
21403;DHT22;10862;51.886;17.078;2022-07-29T05:23:48;17.10;99.90
21403;DHT22;10862;51.886;17.078;2022-07-29T05:26:13;17.20;99.90
21403;DHT22;10862;51.886;17.078;2022-07-29T05:28:39;17.30;99.90
21403;DHT22;10862;51.886;17.078;2022-07-29T05:31:04;17.50;99.90
21403;DHT22;10862;51.886;17.078;2022-07-29T05:33:30;17.60;99.90
21403;DHT22;10862;51.886;17.078;2022-07-29T05:35:55;17.80;99.90
21403;DHT22;10862;51.886;17.078;2022-07-29T05:38:21;18.00;99.90
21403;DHT22;10862;51.886;17.078;2022-07-29T05:40:46;18.20;99.90
21403;DHT22;10862;51.886;17.078;2022-07-29T05:43:11;18.40;99.90
21403;DHT22;10862;51.886;17.078;2022-07-29T05:45:38;18.50;99.90
21403;DHT22;10862;51.886;17.078;2022-07-29T05:48:03;18.70;99.90
21403;DHT22;10862;51.886;17.078;2022-07-29T05:50:29;18.70;99.90
21403;DHT22;10862;51.886;17.078;2022-07-29T05:52:54;18.70;99.90
21403;DHT22;10862;51.886;17.078;2022-07-29T05:55:20;18.90;99.90
21403;DHT22;10862;51.886;17.078;2022-07-29T05:57:45;19.00;99.90
21403;DHT22;10862;51.886;17.078;2022-07-29T06:00:11;19.10;99.90
21403;DHT22;10862;51.886;17.078;2022-07-29T06:02:37;19.10;99.90
21403;DHT22;10862;51.886;17.078;2022-07-29T06:05:02;19.30;99.90
21403;DHT22;10862;51.886;17.078;2022-07-29T06:07:28;19.20;99.90
21403;DHT22;10862;51.886;17.078;2022-07-29T06:09:53;19.30;99.90
21403;DHT22;10862;51.886;17.078;2022-07-29T06:12:19;19.30;99.90
21403;DHT22;10862;51.886;17.078;2022-07-29T06:14:45;19.40;99.90
21403;DHT22;10862;51.886;17.078;2022-07-29T06:17:10;19.40;99.90
21403;DHT22;10862;51.886;17.078;2022-07-29T06:19:36;19.40;99.90
21403;DHT22;10862;51.886;17.078;2022-07-29T06:22:02;19.40;99.90
21403;DHT22;10862;51.886;17.078;2022-07-29T06:24:28;19.40;99.90
21403;DHT22;10862;51.886;17.078;2022-07-29T06:26:54;19.50;99.90
21403;DHT22;10862;51.886;17.078;2022-07-29T06:29:19;19.60;99.90
21403;DHT22;10862;51.886;17.078;2022-07-29T06:31:45;19.50;99.90
21403;DHT22;10862;51.886;17.078;2022-07-29T06:34:10;19.60;99.90
21403;DHT22;10862;51.886;17.078;2022-07-29T06:36:36;19.60;99.90
21403;DHT22;10862;51.886;17.078;2022-07-29T06:39:05;19.70;99.90
21403;DHT22;10862;51.886;17.078;2022-07-29T06:41:31;19.70;99.90
21403;DHT22;10862;51.886;17.078;2022-07-29T06:43:56;19.70;99.90
21403;DHT22;10862;51.886;17.078;2022-07-29T06:46:22;19.80;99.90
21403;DHT22;10862;51.886;17.078;2022-07-29T06:48:48;19.90;99.90
21403;DHT22;10862;51.886;17.078;2022-07-29T06:51:13;20.00;99.90
21403;DHT22;10862;51.886;17.078;2022-07-29T06:53:39;19.90;99.90
21403;DHT22;10862;51.886;17.078;2022-07-29T06:56:06;20.00;99.90
21403;DHT22;10862;51.886;17.078;2022-07-29T06:58:34;20.00;99.90
21403;DHT22;10862;51.886;17.078;2022-07-29T07:01:01;20.10;99.90
21403;DHT22;10862;51.886;17.078;2022-07-29T07:03:27;20.10;99.90
21403;DHT22;10862;51.886;17.078;2022-07-29T07:05:53;20.20;99.90
21403;DHT22;10862;51.886;17.078;2022-07-29T07:08:19;20.30;99.90
21403;DHT22;10862;51.886;17.078;2022-07-29T07:10:45;20.20;99.90
21403;DHT22;10862;51.886;17.078;2022-07-29T07:13:10;20.40;99.90
21403;DHT22;10862;51.886;17.078;2022-07-29T07:15:36;20.50;99.90
21403;DHT22;10862;51.886;17.078;2022-07-29T07:18:02;20.70;99.90
21403;DHT22;10862;51.886;17.078;2022-07-29T07:20:27;20.60;99.30
21403;DHT22;10862;51.886;17.078;2022-07-29T07:22:53;20.70;99.10
21403;DHT22;10862;51.886;17.078;2022-07-29T07:25:18;20.90;98.60
21403;DHT22;10862;51.886;17.078;2022-07-29T07:27:44;21.00;98.40
21403;DHT22;10862;51.886;17.078;2022-07-29T07:30:09;21.00;97.40
21403;DHT22;10862;51.886;17.078;2022-07-29T07:32:35;21.00;97.90
21403;DHT22;10862;51.886;17.078;2022-07-29T07:35:02;21.10;96.60
21403;DHT22;10862;51.886;17.078;2022-07-29T07:37:27;21.40;96.10
21403;DHT22;10862;51.886;17.078;2022-07-29T07:39:53;21.70;95.30
21403;DHT22;10862;51.886;17.078;2022-07-29T07:42:19;22.20;93.60
21403;DHT22;10862;51.886;17.078;2022-07-29T07:44:44;22.50;91.90
21403;DHT22;10862;51.886;17.078;2022-07-29T07:47:14;22.50;89.50
21403;DHT22;10862;51.886;17.078;2022-07-29T07:49:40;22.50;84.90
21403;DHT22;10862;51.886;17.078;2022-07-29T07:52:05;22.50;84.40
21403;DHT22;10862;51.886;17.078;2022-07-29T07:54:31;22.70;84.60
21403;DHT22;10862;51.886;17.078;2022-07-29T07:56:56;22.30;80.70
21403;DHT22;10862;51.886;17.078;2022-07-29T07:59:22;22.30;80.60
21403;DHT22;10862;51.886;17.078;2022-07-29T08:01:48;22.40;76.70
21403;DHT22;10862;51.886;17.078;2022-07-29T08:04:13;22.40;74.90
21403;DHT22;10862;51.886;17.078;2022-07-29T08:06:39;22.40;75.20
21403;DHT22;10862;51.886;17.078;2022-07-29T08:09:04;22.40;70.50
21403;DHT22;10862;51.886;17.078;2022-07-29T08:11:30;22.50;70.70
21403;DHT22;10862;51.886;17.078;2022-07-29T08:13:55;22.50;74.50
21403;DHT22;10862;51.886;17.078;2022-07-29T08:16:21;22.50;70.00
21403;DHT22;10862;51.886;17.078;2022-07-29T08:18:47;22.50;67.40
21403;DHT22;10862;51.886;17.078;2022-07-29T08:21:13;22.30;67.20
21403;DHT22;10862;51.886;17.078;2022-07-29T08:23:39;22.30;66.10
21403;DHT22;10862;51.886;17.078;2022-07-29T08:26:10;22.20;65.00
21403;DHT22;10862;51.886;17.078;2022-07-29T08:28:39;22.40;65.80
21403;DHT22;10862;51.886;17.078;2022-07-29T08:31:05;22.40;62.80
21403;DHT22;10862;51.886;17.078;2022-07-29T08:33:31;22.30;64.20
21403;DHT22;10862;51.886;17.078;2022-07-29T08:35:57;22.50;62.80
21403;DHT22;10862;51.886;17.078;2022-07-29T08:38:22;22.50;60.90
21403;DHT22;10862;51.886;17.078;2022-07-29T08:40:48;22.40;61.40
21403;DHT22;10862;51.886;17.078;2022-07-29T08:43:13;22.60;62.10
21403;DHT22;10862;51.886;17.078;2022-07-29T08:45:41;22.60;62.30
21403;DHT22;10862;51.886;17.078;2022-07-29T08:48:06;22.90;61.20
21403;DHT22;10862;51.886;17.078;2022-07-29T08:50:33;23.40;60.20
21403;DHT22;10862;51.886;17.078;2022-07-29T08:53:00;23.60;55.50
21403;DHT22;10862;51.886;17.078;2022-07-29T08:55:25;23.10;55.90
21403;DHT22;10862;51.886;17.078;2022-07-29T08:57:51;23.20;53.90
21403;DHT22;10862;51.886;17.078;2022-07-29T09:00:17;23.50;52.10
21403;DHT22;10862;51.886;17.078;2022-07-29T09:02:44;23.30;53.30
21403;DHT22;10862;51.886;17.078;2022-07-29T09:05:11;23.20;52.60
21403;DHT22;10862;51.886;17.078;2022-07-29T09:07:38;23.50;50.40
21403;DHT22;10862;51.886;17.078;2022-07-29T09:10:04;23.40;46.70
21403;DHT22;10862;51.886;17.078;2022-07-29T09:12:30;23.20;49.00
21403;DHT22;10862;51.886;17.078;2022-07-29T09:14:55;23.40;50.90
21403;DHT22;10862;51.886;17.078;2022-07-29T09:20:16;23.30;47.20
21403;DHT22;10862;51.886;17.078;2022-07-29T09:22:42;23.50;46.50
21403;DHT22;10862;51.886;17.078;2022-07-29T09:25:07;24.10;43.90
21403;DHT22;10862;51.886;17.078;2022-07-29T09:27:33;23.90;40.80
21403;DHT22;10862;51.886;17.078;2022-07-29T09:30:01;24.20;41.40
21403;DHT22;10862;51.886;17.078;2022-07-29T09:32:27;24.50;38.30
21403;DHT22;10862;51.886;17.078;2022-07-29T09:37:37;24.90;36.20
21403;DHT22;10862;51.886;17.078;2022-07-29T09:40:11;25.20;33.70
21403;DHT22;10862;51.886;17.078;2022-07-29T09:42:36;25.20;32.00
21403;DHT22;10862;51.886;17.078;2022-07-29T09:45:02;24.70;29.40
21403;DHT22;10862;51.886;17.078;2022-07-29T09:47:40;25.40;30.00
21403;DHT22;10862;51.886;17.078;2022-07-29T09:50:05;24.80;28.00
21403;DHT22;10862;51.886;17.078;2022-07-29T09:52:31;25.10;28.20
21403;DHT22;10862;51.886;17.078;2022-07-29T09:55:06;25.40;28.00
21403;DHT22;10862;51.886;17.078;2022-07-29T09:57:32;24.70;28.40
21403;DHT22;10862;51.886;17.078;2022-07-29T10:00:04;25.20;27.10
21403;DHT22;10862;51.886;17.078;2022-07-29T10:02:33;25.00;28.10
21403;DHT22;10862;51.886;17.078;2022-07-29T10:05:00;24.80;26.70
21403;DHT22;10862;51.886;17.078;2022-07-29T10:07:26;24.90;24.80
21403;DHT22;10862;51.886;17.078;2022-07-29T10:09:55;24.90;25.80
21403;DHT22;10862;51.886;17.078;2022-07-29T10:12:21;24.80;25.00
21403;DHT22;10862;51.886;17.078;2022-07-29T10:14:46;24.70;23.60
21403;DHT22;10862;51.886;17.078;2022-07-29T10:17:12;25.10;24.70
21403;DHT22;10862;51.886;17.078;2022-07-29T10:19:38;25.50;23.00
21403;DHT22;10862;51.886;17.078;2022-07-29T10:22:06;25.50;21.30
21403;DHT22;10862;51.886;17.078;2022-07-29T10:24:32;25.60;19.80
21403;DHT22;10862;51.886;17.078;2022-07-29T10:26:58;25.90;20.20
21403;DHT22;10862;51.886;17.078;2022-07-29T10:29:24;26.00;18.80
21403;DHT22;10862;51.886;17.078;2022-07-29T10:34:35;26.00;16.30
21403;DHT22;10862;51.886;17.078;2022-07-29T10:43:07;26.10;14.90
21403;DHT22;10862;51.886;17.078;2022-07-29T10:45:39;26.70;14.30
21403;DHT22;10862;51.886;17.078;2022-07-29T10:48:05;26.80;12.20
21403;DHT22;10862;51.886;17.078;2022-07-29T10:50:52;27.10;11.70
21403;DHT22;10862;51.886;17.078;2022-07-29T10:53:19;27.20;10.50
21403;DHT22;10862;51.886;17.078;2022-07-29T10:55:46;26.60;10.50
21403;DHT22;10862;51.886;17.078;2022-07-29T10:58:15;26.40;10.20
21403;DHT22;10862;51.886;17.078;2022-07-29T11:00:40;26.20;10.00
21403;DHT22;10862;51.886;17.078;2022-07-29T11:03:06;26.70;10.00
21403;DHT22;10862;51.886;17.078;2022-07-29T11:05:50;26.70;10.60
21403;DHT22;10862;51.886;17.078;2022-07-29T11:08:17;27.10;10.30
21403;DHT22;10862;51.886;17.078;2022-07-29T11:10:44;27.00;9.80
21403;DHT22;10862;51.886;17.078;2022-07-29T11:13:09;27.30;9.40
21403;DHT22;10862;51.886;17.078;2022-07-29T11:18:19;27.90;7.50
21403;DHT22;10862;51.886;17.078;2022-07-29T11:20:46;27.30;8.70
21403;DHT22;10862;51.886;17.078;2022-07-29T11:23:22;27.40;8.00
21403;DHT22;10862;51.886;17.078;2022-07-29T11:31:19;26.20;9.00
21403;DHT22;10862;51.886;17.078;2022-07-29T11:33:45;25.70;9.50
21403;DHT22;10862;51.886;17.078;2022-07-29T11:36:12;26.80;9.30
21403;DHT22;10862;51.886;17.078;2022-07-29T11:38:38;27.70;7.40
21403;DHT22;10862;51.886;17.078;2022-07-29T11:41:19;26.90;7.30
21403;DHT22;10862;51.886;17.078;2022-07-29T11:43:52;27.50;7.50
21403;DHT22;10862;51.886;17.078;2022-07-29T11:49:02;27.90;5.90
21403;DHT22;10862;51.886;17.078;2022-07-29T11:51:29;29.30;4.10
21403;DHT22;10862;51.886;17.078;2022-07-29T11:53:54;28.50;3.80
21403;DHT22;10862;51.886;17.078;2022-07-29T11:56:20;28.60;3.20
21403;DHT22;10862;51.886;17.078;2022-07-29T11:58:46;28.80;2.80
21403;DHT22;10862;51.886;17.078;2022-07-29T12:01:15;29.70;2.20
21403;DHT22;10862;51.886;17.078;2022-07-29T12:03:42;28.50;1.00
21403;DHT22;10862;51.886;17.078;2022-07-29T12:06:13;27.70;1.30
21403;DHT22;10862;51.886;17.078;2022-07-29T12:08:40;28.50;2.00
21403;DHT22;10862;51.886;17.078;2022-07-29T12:11:14;29.60;1.00
21403;DHT22;10862;51.886;17.078;2022-07-29T12:13:39;29.00;1.00
21403;DHT22;10862;51.886;17.078;2022-07-29T12:16:05;28.80;1.00
21403;DHT22;10862;51.886;17.078;2022-07-29T12:18:30;28.80;1.50
21403;DHT22;10862;51.886;17.078;2022-07-29T12:20:57;29.60;1.00
21403;DHT22;10862;51.886;17.078;2022-07-29T12:23:22;29.20;1.00
21403;DHT22;10862;51.886;17.078;2022-07-29T12:25:48;29.10;1.00
21403;DHT22;10862;51.886;17.078;2022-07-29T12:28:14;28.80;1.00
21403;DHT22;10862;51.886;17.078;2022-07-29T12:30:44;28.90;1.00
21403;DHT22;10862;51.886;17.078;2022-07-29T12:33:29;29.70;1.00
21403;DHT22;10862;51.886;17.078;2022-07-29T12:35:56;29.10;1.00
21403;DHT22;10862;51.886;17.078;2022-07-29T12:38:22;29.20;1.00
21403;DHT22;10862;51.886;17.078;2022-07-29T12:40:48;29.20;1.00
21403;DHT22;10862;51.886;17.078;2022-07-29T12:43:15;30.10;1.00
21403;DHT22;10862;51.886;17.078;2022-07-29T12:45:42;29.70;1.00
21403;DHT22;10862;51.886;17.078;2022-07-29T12:48:08;29.60;1.00
21403;DHT22;10862;51.886;17.078;2022-07-29T12:50:34;29.10;1.00
21403;DHT22;10862;51.886;17.078;2022-07-29T12:53:10;30.00;1.00
21403;DHT22;10862;51.886;17.078;2022-07-29T12:55:40;29.90;1.00
21403;DHT22;10862;51.886;17.078;2022-07-29T12:58:05;29.30;1.00
21403;DHT22;10862;51.886;17.078;2022-07-29T13:00:31;29.30;1.00
21403;DHT22;10862;51.886;17.078;2022-07-29T13:02:58;29.50;1.00
21403;DHT22;10862;51.886;17.078;2022-07-29T13:05:24;29.90;1.00
21403;DHT22;10862;51.886;17.078;2022-07-29T13:08:13;30.20;1.00
21403;DHT22;10862;51.886;17.078;2022-07-29T13:10:39;30.20;1.00
21403;DHT22;10862;51.886;17.078;2022-07-29T13:13:08;31.10;1.00
21403;DHT22;10862;51.886;17.078;2022-07-29T13:15:35;30.40;1.00
21403;DHT22;10862;51.886;17.078;2022-07-29T13:18:01;29.80;1.00
21403;DHT22;10862;51.886;17.078;2022-07-29T13:20:27;29.90;1.00
21403;DHT22;10862;51.886;17.078;2022-07-29T13:22:58;30.30;1.00
21403;DHT22;10862;51.886;17.078;2022-07-29T13:25:25;30.60;1.00
21403;DHT22;10862;51.886;17.078;2022-07-29T13:27:51;30.30;1.00
21403;DHT22;10862;51.886;17.078;2022-07-29T13:30:19;29.60;1.00
21403;DHT22;10862;51.886;17.078;2022-07-29T13:32:45;29.30;1.00
21403;DHT22;10862;51.886;17.078;2022-07-29T13:35:11;28.20;1.00
21403;DHT22;10862;51.886;17.078;2022-07-29T13:37:38;28.40;1.00
21403;DHT22;10862;51.886;17.078;2022-07-29T13:40:05;29.60;1.00
21403;DHT22;10862;51.886;17.078;2022-07-29T13:42:31;29.40;1.00
21403;DHT22;10862;51.886;17.078;2022-07-29T13:44:57;29.30;1.00
21403;DHT22;10862;51.886;17.078;2022-07-29T13:47:22;29.30;1.00
21403;DHT22;10862;51.886;17.078;2022-07-29T13:49:48;30.40;1.00
21403;DHT22;10862;51.886;17.078;2022-07-29T13:52:14;30.80;1.00
21403;DHT22;10862;51.886;17.078;2022-07-29T13:54:40;30.90;1.00
21403;DHT22;10862;51.886;17.078;2022-07-29T13:57:06;30.50;1.00
21403;DHT22;10862;51.886;17.078;2022-07-29T13:59:32;29.70;1.00
21403;DHT22;10862;51.886;17.078;2022-07-29T14:01:57;29.60;1.00
21403;DHT22;10862;51.886;17.078;2022-07-29T14:04:23;28.90;1.00
21403;DHT22;10862;51.886;17.078;2022-07-29T14:06:49;29.40;1.00
21403;DHT22;10862;51.886;17.078;2022-07-29T14:09:14;29.10;1.00
21403;DHT22;10862;51.886;17.078;2022-07-29T14:11:40;29.40;1.00
21403;DHT22;10862;51.886;17.078;2022-07-29T14:14:05;29.60;1.00
21403;DHT22;10862;51.886;17.078;2022-07-29T14:16:31;30.70;1.00
21403;DHT22;10862;51.886;17.078;2022-07-29T14:18:56;31.00;1.00
21403;DHT22;10862;51.886;17.078;2022-07-29T14:21:22;31.30;1.00
21403;DHT22;10862;51.886;17.078;2022-07-29T14:23:47;30.00;1.00
21403;DHT22;10862;51.886;17.078;2022-07-29T14:26:13;30.10;1.00
21403;DHT22;10862;51.886;17.078;2022-07-29T14:28:38;29.70;1.00
21403;DHT22;10862;51.886;17.078;2022-07-29T14:31:04;29.90;1.00
21403;DHT22;10862;51.886;17.078;2022-07-29T14:33:29;30.60;1.00
21403;DHT22;10862;51.886;17.078;2022-07-29T14:35:55;31.30;1.00
21403;DHT22;10862;51.886;17.078;2022-07-29T14:38:20;30.40;1.00
21403;DHT22;10862;51.886;17.078;2022-07-29T14:40:46;30.30;1.00
21403;DHT22;10862;51.886;17.078;2022-07-29T14:43:12;29.60;1.00
21403;DHT22;10862;51.886;17.078;2022-07-29T14:45:37;29.60;1.00
21403;DHT22;10862;51.886;17.078;2022-07-29T14:48:03;28.30;1.00
21403;DHT22;10862;51.886;17.078;2022-07-29T14:50:29;28.20;1.00
21403;DHT22;10862;51.886;17.078;2022-07-29T14:52:54;28.10;1.00
21403;DHT22;10862;51.886;17.078;2022-07-29T14:55:20;28.10;1.00
21403;DHT22;10862;51.886;17.078;2022-07-29T14:57:45;27.60;1.00
21403;DHT22;10862;51.886;17.078;2022-07-29T15:00:11;27.20;1.00
21403;DHT22;10862;51.886;17.078;2022-07-29T15:02:36;27.00;1.00
21403;DHT22;10862;51.886;17.078;2022-07-29T15:05:02;27.20;1.00
21403;DHT22;10862;51.886;17.078;2022-07-29T15:07:28;27.10;1.00
21403;DHT22;10862;51.886;17.078;2022-07-29T15:09:53;26.90;1.00
21403;DHT22;10862;51.886;17.078;2022-07-29T15:12:19;26.70;1.00
21403;DHT22;10862;51.886;17.078;2022-07-29T15:14:44;26.70;1.00
21403;DHT22;10862;51.886;17.078;2022-07-29T15:17:10;27.20;1.00
21403;DHT22;10862;51.886;17.078;2022-07-29T15:19:35;26.90;1.00
21403;DHT22;10862;51.886;17.078;2022-07-29T15:22:01;26.80;1.00
21403;DHT22;10862;51.886;17.078;2022-07-29T15:24:27;27.00;1.00
21403;DHT22;10862;51.886;17.078;2022-07-29T15:26:52;26.80;1.00
21403;DHT22;10862;51.886;17.078;2022-07-29T15:29:18;26.80;1.00
21403;DHT22;10862;51.886;17.078;2022-07-29T15:31:43;26.50;1.00
21403;DHT22;10862;51.886;17.078;2022-07-29T15:34:09;26.40;1.00
21403;DHT22;10862;51.886;17.078;2022-07-29T15:36:34;26.60;1.00
21403;DHT22;10862;51.886;17.078;2022-07-29T15:39:00;26.40;1.00
21403;DHT22;10862;51.886;17.078;2022-07-29T15:41:26;26.50;1.00
21403;DHT22;10862;51.886;17.078;2022-07-29T15:43:51;26.40;1.00
21403;DHT22;10862;51.886;17.078;2022-07-29T15:46:17;26.40;1.00
21403;DHT22;10862;51.886;17.078;2022-07-29T15:49:02;26.10;1.00
21403;DHT22;10862;51.886;17.078;2022-07-29T15:51:28;26.40;1.00
21403;DHT22;10862;51.886;17.078;2022-07-29T15:53:53;26.30;1.00
21403;DHT22;10862;51.886;17.078;2022-07-29T15:56:19;26.60;1.00
21403;DHT22;10862;51.886;17.078;2022-07-29T15:58:44;26.90;1.00
21403;DHT22;10862;51.886;17.078;2022-07-29T16:01:10;27.20;1.00